createdAt,value
2022-09-27T00:01:13.902Z,11.80
2022-09-27T00:03:42.454Z,11.73
2022-09-27T00:06:14.686Z,11.75
2022-09-27T00:08:43.223Z,11.79
2022-09-27T00:11:18.788Z,11.72
2022-09-27T00:13:46.797Z,11.68
2022-09-27T00:16:16.078Z,11.70
2022-09-27T00:18:44.163Z,11.75
2022-09-27T00:21:14.247Z,11.79
2022-09-27T00:23:42.317Z,11.79
2022-09-27T00:26:15.270Z,11.79
2022-09-27T00:28:43.710Z,11.77
2022-09-27T00:31:20.958Z,11.82
2022-09-27T00:33:50.354Z,11.81
2022-09-27T00:36:19.411Z,11.81
2022-09-27T00:38:47.728Z,11.83
2022-09-27T00:41:17.642Z,11.83
2022-09-27T00:43:49.346Z,11.86
2022-09-27T00:46:26.690Z,11.89
2022-09-27T00:49:04.945Z,11.86
2022-09-27T00:51:35.984Z,11.76
2022-09-27T00:54:04.502Z,11.83
2022-09-27T00:56:33.391Z,11.79
2022-09-27T00:59:07.903Z,11.84
2022-09-27T01:01:37.363Z,11.88
2022-09-27T01:04:08.838Z,11.91
2022-09-27T01:06:37.879Z,11.83
2022-09-27T01:09:07.956Z,11.87
2022-09-27T01:11:46.057Z,11.85
2022-09-27T01:14:39.529Z,11.89
2022-09-27T01:17:23.703Z,11.89
2022-09-27T01:20:15.895Z,11.86
2022-09-27T01:22:55.866Z,11.88
2022-09-27T01:25:44.996Z,11.80
2022-09-27T01:28:24.229Z,11.77
2022-09-27T01:30:57.166Z,11.78
2022-09-27T01:33:41.371Z,11.75
2022-09-27T01:36:19.035Z,11.76
2022-09-27T01:38:59.838Z,11.79
2022-09-27T01:41:39.489Z,11.80
2022-09-27T01:44:14.856Z,11.72
2022-09-27T01:46:54.063Z,11.76
2022-09-27T01:49:55.053Z,11.80
2022-09-27T01:52:28.447Z,11.82
2022-09-27T01:55:00.270Z,11.83
2022-09-27T01:58:12.802Z,11.83
2022-09-27T02:00:45.730Z,11.88
2022-09-27T02:03:18.962Z,11.84
2022-09-27T02:06:13.838Z,11.87
2022-09-27T02:09:13.902Z,11.79
2022-09-27T02:11:58.253Z,11.65
2022-09-27T02:14:34.911Z,11.65
2022-09-27T02:17:13.097Z,11.69
2022-09-27T02:19:53.398Z,11.69
2022-09-27T02:22:35.019Z,11.77
2022-09-27T02:25:11.610Z,11.69
2022-09-27T02:27:49.593Z,11.67
2022-09-27T02:30:20.301Z,11.75
2022-09-27T02:32:53.982Z,11.63
2022-09-27T02:35:27.720Z,11.67
2022-09-27T02:37:56.597Z,11.67
2022-09-27T02:40:26.914Z,11.77
2022-09-27T02:42:55.054Z,11.80
2022-09-27T02:45:23.701Z,11.77
2022-09-27T02:48:04.617Z,11.77
2022-09-27T02:51:10.946Z,11.71
2022-09-27T02:53:53.211Z,11.79
2022-09-27T02:57:00.607Z,11.78
2022-09-27T02:59:53.889Z,11.80
2022-09-27T03:02:34.643Z,11.79
2022-09-27T03:05:37.935Z,11.80
2022-09-27T03:08:08.590Z,11.82
2022-09-27T03:10:36.447Z,11.87
2022-09-27T03:13:04.878Z,11.88
2022-09-27T03:15:33.242Z,11.89
2022-09-27T03:18:01.249Z,11.90
2022-09-27T03:20:47.803Z,11.83
2022-09-27T03:23:19.387Z,11.85
2022-09-27T03:25:47.358Z,11.84
2022-09-27T03:28:15.535Z,11.77
2022-09-27T03:30:46.406Z,11.81
2022-09-27T03:33:22.148Z,11.87
2022-09-27T03:35:54.900Z,11.89
2022-09-27T03:38:24.071Z,11.90
2022-09-27T03:40:52.916Z,11.89
2022-09-27T03:43:20.836Z,11.76
2022-09-27T03:45:48.808Z,11.78
2022-09-27T03:48:18.309Z,11.76
2022-09-27T03:50:46.184Z,11.77
2022-09-27T03:53:14.054Z,11.76
2022-09-27T03:55:46.058Z,11.80
2022-09-27T03:58:13.890Z,11.80
2022-09-27T04:00:43.308Z,11.81
2022-09-27T04:03:12.071Z,11.77
2022-09-27T04:06:00.347Z,11.78
2022-09-27T04:08:36.560Z,11.65
2022-09-27T04:11:07.887Z,11.52
2022-09-27T04:13:36.373Z,11.45
2022-09-27T04:16:04.364Z,11.40
2022-09-27T04:18:35.184Z,11.32
2022-09-27T04:21:12.001Z,11.13
2022-09-27T04:23:46.702Z,11.19
2022-09-27T04:26:21.028Z,11.12
2022-09-27T04:28:54.794Z,11.11
2022-09-27T04:31:29.996Z,11.11
2022-09-27T04:34:45.957Z,11.18
2022-09-27T04:37:14.540Z,11.18
2022-09-27T04:39:46.489Z,11.18
2022-09-27T04:42:16.062Z,11.20
2022-09-27T04:44:44.231Z,11.28
2022-09-27T04:47:13.225Z,11.30
2022-09-27T04:49:42.807Z,11.33
2022-09-27T04:52:10.783Z,11.26
2022-09-27T04:54:39.153Z,11.25
2022-09-27T04:57:14.474Z,11.19
2022-09-27T04:59:44.786Z,11.24
2022-09-27T05:02:15.168Z,11.28
2022-09-27T05:05:00.869Z,11.22
2022-09-27T05:07:35.875Z,11.24
2022-09-27T05:10:10.215Z,11.10
2022-09-27T05:12:38.388Z,11.18
2022-09-27T05:15:09.255Z,11.21
2022-09-27T05:18:03.338Z,11.23
2022-09-27T05:20:49.914Z,11.16
2022-09-27T05:23:27.869Z,11.21
2022-09-27T05:25:56.478Z,11.21
2022-09-27T05:28:25.124Z,11.23
2022-09-27T05:30:54.313Z,11.21
2022-09-27T05:33:22.999Z,11.13
2022-09-27T05:35:54.790Z,11.22
2022-09-27T05:38:26.246Z,11.25
2022-09-27T05:40:57.595Z,11.28
2022-09-27T05:43:26.502Z,11.19
2022-09-27T05:45:56.398Z,11.30
2022-09-27T05:48:24.599Z,11.36
2022-09-27T05:51:23.066Z,11.32
2022-09-27T05:53:52.115Z,11.33
2022-09-27T05:56:26.909Z,11.36
2022-09-27T05:59:10.206Z,11.38
2022-09-27T06:02:05.513Z,11.34
2022-09-27T06:04:52.706Z,11.25
2022-09-27T06:07:40.652Z,11.38
2022-09-27T06:10:15.697Z,11.41
2022-09-27T06:12:43.691Z,11.46
2022-09-27T06:15:27.889Z,11.46
2022-09-27T06:17:57.140Z,11.48
2022-09-27T06:20:25.045Z,11.42
2022-09-27T06:22:54.050Z,11.44
2022-09-27T06:25:22.667Z,11.42
2022-09-27T06:28:02.232Z,11.47
2022-09-27T06:30:30.990Z,11.45
2022-09-27T06:33:03.669Z,11.44
2022-09-27T06:35:42.935Z,11.45
2022-09-27T06:38:13.502Z,11.38
2022-09-27T06:40:49.631Z,11.37
2022-09-27T06:43:34.087Z,11.23
2022-09-27T06:46:15.536Z,11.36
2022-09-27T06:48:57.602Z,11.38
2022-09-27T06:51:26.055Z,11.47
2022-09-27T06:53:54.567Z,11.44
2022-09-27T06:56:22.360Z,11.56
2022-09-27T06:59:10.830Z,11.64
2022-09-27T07:02:04.920Z,11.61
2022-09-27T07:04:54.721Z,11.62
2022-09-27T07:07:44.069Z,11.48
2022-09-27T07:10:12.524Z,11.59
2022-09-27T07:12:41.544Z,11.59
2022-09-27T07:15:11.298Z,11.65
2022-09-27T07:17:39.440Z,11.62
2022-09-27T07:20:09.846Z,11.64
2022-09-27T07:22:42.018Z,11.65
2022-09-27T07:25:11.013Z,11.58
2022-09-27T07:27:41.587Z,11.54
2022-09-27T07:30:11.978Z,11.55
2022-09-27T07:32:40.025Z,11.64
2022-09-27T07:35:14.499Z,11.68
2022-09-27T07:37:43.433Z,11.72
2022-09-27T07:40:12.268Z,11.83
2022-09-27T07:42:41.184Z,11.75
2022-09-27T07:45:11.301Z,11.78
2022-09-27T07:47:50.558Z,11.80
2022-09-27T07:50:26.423Z,11.87
2022-09-27T07:53:00.106Z,11.86
2022-09-27T07:55:52.982Z,11.72
2022-09-27T07:58:23.789Z,11.73
2022-09-27T08:00:54.684Z,11.64
2022-09-27T08:03:22.847Z,11.71
2022-09-27T08:05:52.980Z,11.70
2022-09-27T08:08:21.572Z,11.72
2022-09-27T08:10:51.320Z,11.80
2022-09-27T08:13:20.948Z,11.86
2022-09-27T08:15:52.617Z,11.76
2022-09-27T08:18:24.210Z,11.85
2022-09-27T08:20:58.784Z,11.81
2022-09-27T08:23:49.264Z,11.57
2022-09-27T08:26:28.933Z,11.51
2022-09-27T08:29:04.357Z,11.46
2022-09-27T08:31:38.738Z,11.36
2022-09-27T08:34:08.421Z,11.45
2022-09-27T08:36:37.673Z,11.47
2022-09-27T08:39:06.150Z,11.37
2022-09-27T08:41:48.826Z,11.63
2022-09-27T08:44:28.991Z,11.72
2022-09-27T08:47:12.810Z,11.75
2022-09-27T08:49:44.619Z,11.98
2022-09-27T08:52:21.318Z,11.98
2022-09-27T08:54:51.622Z,12.01
2022-09-27T08:57:19.513Z,12.27
2022-09-27T08:59:55.258Z,12.33
2022-09-27T09:02:26.105Z,12.32
2022-09-27T09:04:59.552Z,12.35
2022-09-27T09:07:41.835Z,12.29
2022-09-27T09:10:47.721Z,12.61
2022-09-27T09:13:27.676Z,12.73
2022-09-27T09:16:11.543Z,12.75
2022-09-27T09:19:01.670Z,12.83
2022-09-27T09:21:57.882Z,12.58
2022-09-27T09:24:38.365Z,12.76
2022-09-27T09:27:17.764Z,12.90
2022-09-27T09:30:03.035Z,13.05
2022-09-27T09:32:45.610Z,13.37
2022-09-27T09:35:18.376Z,13.31
2022-09-27T09:37:50.241Z,13.44
2022-09-27T09:40:23.720Z,13.74
2022-09-27T09:42:57.650Z,13.75
2022-09-27T09:45:30.324Z,13.69
2022-09-27T09:48:04.675Z,13.63
2022-09-27T09:50:40.070Z,13.90
2022-09-27T09:53:15.954Z,13.99
2022-09-27T09:55:51.966Z,14.00
2022-09-27T09:58:24.717Z,13.75
2022-09-27T10:01:02.556Z,13.53
2022-09-27T10:03:30.503Z,13.32
2022-09-27T10:05:58.330Z,13.28
2022-09-27T10:08:26.545Z,13.49
2022-09-27T10:11:22.329Z,13.53
2022-09-27T10:13:57.979Z,13.44
2022-09-27T10:16:28.834Z,13.33
2022-09-27T10:19:01.147Z,13.55
2022-09-27T10:21:31.035Z,13.66
2022-09-27T10:24:14.955Z,13.58
2022-09-27T10:27:13.198Z,13.71
2022-09-27T10:29:42.210Z,13.85
2022-09-27T10:32:24.618Z,13.73
2022-09-27T10:35:24.048Z,13.69
2022-09-27T10:37:53.265Z,13.63
2022-09-27T10:40:33.767Z,13.46
2022-09-27T10:43:29.466Z,13.42
2022-09-27T10:46:14.088Z,12.96
2022-09-27T10:48:44.606Z,12.81
2022-09-27T10:54:21.523Z,12.55
2022-09-27T10:56:57.917Z,12.59
2022-09-27T10:59:31.379Z,12.34
2022-09-27T11:02:00.323Z,12.54
2022-09-27T11:04:39.637Z,12.97
2022-09-27T11:07:19.991Z,13.12
2022-09-27T11:10:02.893Z,13.61
2022-09-27T11:12:35.449Z,14.36
2022-09-27T11:15:08.676Z,14.49
2022-09-27T11:17:51.521Z,14.63
2022-09-27T11:20:26.601Z,14.57
2022-09-27T11:23:13.896Z,14.47
2022-09-27T11:25:53.678Z,14.25
2022-09-27T11:28:37.349Z,13.88
2022-09-27T11:31:19.969Z,13.93
2022-09-27T11:34:16.858Z,13.69
2022-09-27T11:36:59.760Z,13.67
2022-09-27T11:39:41.320Z,13.86
2022-09-27T11:42:33.143Z,13.93
2022-09-27T11:48:18.774Z,13.04
2022-09-27T11:51:08.298Z,12.80
2022-09-27T11:53:56.053Z,12.73
2022-09-27T11:56:36.108Z,12.64
2022-09-27T11:59:25.027Z,12.61
2022-09-27T12:02:00.335Z,12.23
2022-09-27T12:04:58.066Z,12.37
2022-09-27T12:07:33.917Z,12.38
2022-09-27T12:10:06.052Z,12.29
2022-09-27T12:12:38.580Z,12.30
2022-09-27T12:15:14.082Z,12.35
2022-09-27T12:17:46.621Z,12.49
2022-09-27T12:20:22.386Z,12.50
2022-09-27T12:22:59.947Z,12.27
2022-09-27T12:26:08.151Z,12.26
2022-09-27T12:28:41.948Z,12.17
2022-09-27T12:31:29.458Z,12.18
2022-09-27T12:34:16.215Z,12.01
2022-09-27T12:36:52.546Z,11.92
2022-09-27T12:39:26.774Z,11.89
2022-09-27T12:42:15.280Z,11.93
2022-09-27T12:44:50.558Z,11.96
2022-09-27T12:47:51.270Z,12.07
2022-09-27T12:50:31.064Z,12.02
2022-09-27T12:53:05.395Z,12.12
2022-09-27T12:55:56.439Z,11.95
2022-09-27T12:58:53.593Z,11.88
2022-09-27T13:01:37.627Z,11.98
2022-09-27T13:04:43.680Z,12.17
2022-09-27T13:07:27.363Z,12.30
2022-09-27T13:10:31.123Z,12.38
2022-09-27T13:13:04.523Z,12.36
2022-09-27T13:15:34.622Z,12.39
2022-09-27T13:18:06.675Z,12.49
2022-09-27T13:20:46.382Z,12.53
2022-09-27T13:23:58.974Z,12.59
2022-09-27T13:26:48.452Z,12.74
2022-09-27T13:29:31.773Z,12.91
2022-09-27T13:32:23.827Z,13.00
2022-09-27T13:35:19.707Z,13.05
2022-09-27T13:37:56.781Z,13.14
2022-09-27T13:40:33.239Z,13.19
2022-09-27T13:43:54.330Z,13.51
2022-09-27T13:46:37.186Z,13.80
2022-09-27T13:49:15.731Z,14.01
2022-09-27T13:52:05.639Z,14.02
2022-09-27T13:54:40.076Z,14.08
2022-09-27T13:57:47.555Z,14.04
2022-09-27T14:00:22.871Z,13.71
2022-09-27T14:03:06.048Z,13.97
2022-09-27T14:05:39.523Z,14.26
2022-09-27T14:08:16.141Z,14.17
2022-09-27T14:10:44.991Z,14.33
2022-09-27T14:13:20.994Z,14.04
2022-09-27T14:16:02.839Z,13.93
2022-09-27T14:18:31.314Z,13.98
2022-09-27T14:21:18.170Z,13.98
2022-09-27T14:24:29.726Z,13.85
2022-09-27T14:27:14.071Z,13.70
2022-09-27T14:29:44.890Z,13.55
2022-09-27T14:32:18.842Z,13.36
2022-09-27T14:35:32.706Z,13.20
2022-09-27T14:38:15.840Z,13.17
2022-09-27T14:41:00.008Z,13.26
2022-09-27T14:43:29.137Z,13.17
2022-09-27T14:46:00.495Z,12.92
2022-09-27T14:48:32.244Z,12.74
2022-09-27T14:51:06.154Z,12.60
2022-09-27T14:53:37.627Z,12.18
2022-09-27T14:56:07.016Z,12.06
2022-09-27T14:58:47.323Z,11.88
2022-09-27T15:01:17.322Z,11.65
2022-09-27T15:03:48.771Z,11.54
2022-09-27T15:06:17.548Z,11.39
2022-09-27T15:08:49.218Z,11.37
2022-09-27T15:11:19.199Z,11.44
2022-09-27T15:13:51.248Z,11.35
2022-09-27T15:16:23.297Z,11.34
2022-09-27T15:19:03.089Z,11.32
2022-09-27T15:21:32.764Z,11.41
2022-09-27T15:24:01.893Z,11.42
2022-09-27T15:26:39.162Z,11.45
2022-09-27T15:29:07.586Z,11.46
2022-09-27T15:31:37.218Z,11.51
2022-09-27T15:34:06.914Z,11.55
2022-09-27T15:36:56.116Z,11.48
2022-09-27T15:39:30.059Z,11.59
2022-09-27T15:42:03.565Z,11.57
2022-09-27T15:44:48.523Z,11.65
2022-09-27T15:47:40.199Z,11.67
2022-09-27T15:50:35.792Z,11.67
2022-09-27T15:53:06.741Z,11.62
2022-09-27T15:55:37.747Z,11.71
2022-09-27T15:58:08.247Z,11.73
2022-09-27T16:00:36.917Z,11.66
2022-09-27T16:03:05.165Z,11.66
2022-09-27T16:05:33.162Z,11.55
2022-09-27T16:08:02.658Z,11.60
2022-09-27T16:10:36.980Z,11.55
2022-09-27T16:13:04.851Z,11.45
2022-09-27T16:15:33.274Z,11.48
2022-09-27T16:18:01.102Z,11.34
2022-09-27T16:20:29.600Z,11.37
2022-09-27T16:22:58.476Z,11.45
2022-09-27T16:25:28.697Z,11.45
2022-09-27T16:27:58.997Z,11.46
2022-09-27T16:30:27.082Z,11.52
2022-09-27T16:32:54.977Z,11.52
2022-09-27T16:35:24.751Z,11.44
2022-09-27T16:37:52.586Z,11.38
2022-09-27T16:40:20.402Z,11.32
2022-09-27T16:42:50.677Z,11.35
2022-09-27T16:45:19.739Z,11.37
2022-09-27T16:47:48.260Z,11.42
2022-09-27T16:50:34.368Z,11.45
2022-09-27T16:53:02.164Z,11.41
2022-09-27T16:55:30.312Z,11.37
2022-09-27T16:58:00.453Z,11.24
2022-09-27T17:00:28.453Z,11.17
2022-09-27T17:02:56.494Z,11.22
2022-09-27T17:05:24.245Z,11.26
2022-09-27T17:07:52.685Z,11.07
2022-09-27T17:10:20.896Z,11.08
2022-09-27T17:12:48.965Z,11.12
2022-09-27T17:15:18.994Z,11.10
2022-09-27T17:17:50.432Z,11.10
2022-09-27T17:20:18.742Z,11.00
2022-09-27T17:22:46.606Z,10.92
2022-09-27T17:25:14.364Z,10.87
2022-09-27T17:27:42.205Z,10.91
2022-09-27T17:30:10.873Z,10.90
2022-09-27T17:32:40.139Z,10.91
2022-09-27T17:35:09.392Z,10.95
2022-09-27T17:37:37.308Z,10.92
2022-09-27T17:40:06.414Z,10.97
2022-09-27T17:42:35.378Z,10.97
2022-09-27T17:45:03.243Z,10.86
2022-09-27T17:47:48.719Z,10.91
2022-09-27T17:50:28.577Z,10.96
2022-09-27T17:52:58.652Z,10.99
2022-09-27T17:55:27.065Z,11.01
2022-09-27T17:57:54.902Z,11.00
2022-09-27T18:00:22.914Z,10.98
2022-09-27T18:02:51.207Z,10.99
2022-09-27T18:05:21.387Z,11.01
2022-09-27T18:07:49.330Z,11.01
2022-09-27T18:10:18.082Z,11.02
2022-09-27T18:12:45.976Z,11.01
2022-09-27T18:15:16.903Z,11.00
2022-09-27T18:17:45.814Z,11.01
2022-09-27T18:20:13.656Z,10.96
2022-09-27T18:22:42.778Z,10.93
2022-09-27T18:25:12.112Z,10.92
2022-09-27T18:27:40.970Z,10.94
2022-09-27T18:30:10.481Z,10.95
2022-09-27T18:32:38.394Z,10.95
2022-09-27T18:35:07.044Z,10.91
2022-09-27T18:37:34.892Z,10.93
2022-09-27T18:40:04.503Z,10.73
2022-09-27T18:42:32.281Z,10.77
2022-09-27T18:45:00.155Z,10.75
2022-09-27T18:47:27.982Z,10.71
2022-09-27T18:49:55.877Z,10.75
2022-09-27T18:52:23.802Z,10.73
2022-09-27T18:54:51.543Z,10.78
2022-09-27T18:57:20.887Z,10.76
2022-09-27T18:59:49.522Z,10.81
2022-09-27T19:02:17.436Z,10.82
2022-09-27T19:04:45.364Z,10.80
2022-09-27T19:07:13.218Z,10.71
2022-09-27T19:09:41.172Z,10.70
2022-09-27T19:12:09.001Z,10.63
2022-09-27T19:14:38.165Z,10.57
2022-09-27T19:17:06.011Z,10.49
2022-09-27T19:19:33.938Z,10.45
2022-09-27T19:22:02.034Z,10.46
2022-09-27T19:24:29.954Z,10.42
2022-09-27T19:26:57.768Z,10.41
2022-09-27T19:29:26.090Z,10.38
2022-09-27T19:31:55.371Z,10.35
2022-09-27T19:34:23.271Z,10.28
2022-09-27T19:36:51.182Z,10.25
2022-09-27T19:39:19.130Z,10.18
2022-09-27T19:41:47.015Z,10.16
2022-09-27T19:44:15.379Z,10.12
2022-09-27T19:46:45.197Z,10.06
2022-09-27T19:49:14.678Z,10.01
2022-09-27T19:51:42.682Z,9.98
2022-09-27T19:54:11.591Z,9.97
2022-09-27T19:56:39.447Z,9.96
2022-09-27T19:59:07.577Z,9.95
2022-09-27T20:01:36.211Z,9.88
2022-09-27T20:04:04.309Z,9.83
2022-09-27T20:06:34.520Z,9.83
2022-09-27T20:09:03.599Z,9.80
2022-09-27T20:11:31.471Z,9.75
2022-09-27T20:13:59.917Z,9.75
2022-09-27T20:16:28.685Z,9.76
2022-09-27T20:18:58.362Z,9.74
2022-09-27T20:21:28.782Z,9.73
2022-09-27T20:23:58.708Z,9.72
2022-09-27T20:26:28.288Z,9.74
2022-09-27T20:29:01.073Z,9.78
2022-09-27T20:31:30.329Z,9.81
2022-09-27T20:33:58.367Z,9.81
2022-09-27T20:36:27.755Z,9.85
2022-09-27T20:39:02.010Z,9.94
2022-09-27T20:41:33.643Z,9.97
2022-09-27T20:44:03.436Z,9.94
2022-09-27T20:46:31.885Z,9.97
2022-09-27T20:49:02.781Z,9.99
2022-09-27T20:51:33.366Z,10.02
2022-09-27T20:54:01.833Z,10.06
2022-09-27T20:56:33.207Z,10.08
2022-09-27T20:59:02.923Z,10.14
2022-09-27T21:01:31.968Z,10.14
2022-09-27T21:04:01.499Z,10.19
2022-09-27T21:06:31.280Z,10.23
2022-09-27T21:09:00.335Z,10.26
2022-09-27T21:11:28.506Z,10.27
2022-09-27T21:13:57.721Z,10.28
2022-09-27T21:16:27.498Z,10.28
2022-09-27T21:18:57.368Z,10.30
2022-09-27T21:21:26.556Z,10.33
2022-09-27T21:23:56.368Z,10.32
2022-09-27T21:26:25.396Z,10.29
2022-09-27T21:28:55.047Z,10.31
2022-09-27T21:31:26.288Z,10.32
2022-09-27T21:33:58.525Z,10.34
2022-09-27T21:36:28.388Z,10.34
2022-09-27T21:38:57.218Z,10.38
2022-09-27T21:41:26.608Z,10.31
2022-09-27T21:43:54.882Z,10.35
2022-09-27T21:46:25.995Z,10.36
2022-09-27T21:48:56.379Z,10.32
2022-09-27T21:51:25.904Z,10.34
2022-09-27T21:53:54.995Z,10.35
2022-09-27T21:56:24.149Z,10.31
2022-09-27T21:58:52.334Z,10.31
2022-09-27T22:01:22.265Z,10.24
2022-09-27T22:03:54.028Z,10.16
2022-09-27T22:06:23.592Z,10.13
2022-09-27T22:08:52.583Z,10.09
2022-09-27T22:11:23.157Z,10.06
2022-09-27T22:13:51.213Z,10.00
2022-09-27T22:16:21.268Z,9.95
2022-09-27T22:18:52.571Z,9.94
2022-09-27T22:21:23.913Z,9.96
2022-09-27T22:23:54.907Z,9.91
2022-09-27T22:26:24.928Z,9.89
2022-09-27T22:28:52.983Z,9.89
2022-09-27T22:31:22.426Z,9.88
2022-09-27T22:33:53.720Z,9.82
2022-09-27T22:36:22.492Z,9.78
2022-09-27T22:38:50.879Z,9.78
2022-09-27T22:41:19.205Z,9.74
2022-09-27T22:43:47.349Z,9.72
2022-09-27T22:46:15.408Z,9.66
2022-09-27T22:48:43.770Z,9.61
2022-09-27T22:51:13.698Z,9.59
2022-09-27T22:53:41.450Z,9.55
2022-09-27T22:56:11.746Z,9.51
2022-09-27T22:58:39.536Z,9.47
2022-09-27T23:01:12.010Z,9.41
2022-09-27T23:03:39.933Z,9.38
2022-09-27T23:06:09.022Z,9.35
2022-09-27T23:08:38.996Z,9.30
2022-09-27T23:11:08.581Z,9.25
2022-09-27T23:13:38.520Z,9.26
2022-09-27T23:16:08.898Z,9.23
2022-09-27T23:18:38.105Z,9.19
2022-09-27T23:21:08.313Z,9.28
2022-09-27T23:23:40.640Z,9.22
2022-09-27T23:26:10.238Z,9.23
2022-09-27T23:28:38.680Z,9.21
2022-09-27T23:31:08.631Z,9.18
2022-09-27T23:33:37.342Z,9.16
2022-09-27T23:36:05.922Z,9.16
2022-09-27T23:38:33.809Z,9.20
2022-09-27T23:41:02.970Z,9.26
2022-09-27T23:43:30.903Z,9.26
2022-09-27T23:45:58.683Z,9.30
2022-09-27T23:48:27.078Z,9.31
2022-09-27T23:50:56.653Z,9.26
2022-09-27T23:53:24.960Z,9.22
2022-09-27T23:56:02.398Z,9.19
2022-09-27T23:58:33.401Z,9.16
